Terminal Aerodrome Forecast
Issued by NWS Cleveland, OH

Home | Current Version | Previous Version | Text Only | Print | Product List | Glossary On
Versions: 1 2 3 4 5 6 7 8 9 10 11 12 13 14
000
FTUS41 KCLE 312322
TAFCAK
TAF
KCAK 312322Z 0100/0124 02010G18KT P6SM BKN250
     FM010200 04005KT P6SM SCT250
     FM011500 16006KT P6SM SCT050=

USA.gov is the U.S. government's official web portal to all federal, state and local government web resources and services.